Time,TemperatureF,DewpointF,PressureIn,WindDirection,WindDirectionDegrees,WindSpeedMPH,WindSpeedGustMPH,Humidity,HourlyPrecipIn,Conditions,Clouds,dailyrainin,SoftwareType,DateUTC
2013-05-16 00:00:00,65.4,43.5,29.82,NE,52,1.0,1.0,45,0.00,,,0.00,Wunderground v.1.15,2013-05-16 05:00:00,
2013-05-16 00:10:00,65.6,43.7,29.82,NE,56,0.0,0.0,45,0.00,,,0.00,Wunderground v.1.15,2013-05-16 05:10:00,
2013-05-16 00:15:00,65.5,44.7,29.82,NE,56,0.0,0.0,47,0.00,,,0.00,Wunderground v.1.15,2013-05-16 05:15:00,
2013-05-16 00:25:00,65.1,44.4,29.82,ENE,60,0.0,1.0,47,0.00,,,0.00,Wunderground v.1.15,2013-05-16 05:25:00,
2013-05-16 00:35:00,64.3,44.7,29.82,ENE,59,0.0,0.0,49,0.00,,,0.00,Wunderground v.1.15,2013-05-16 05:35:00,
2013-05-16 00:45:00,63.6,44.6,29.81,East,84,0.0,0.0,50,0.00,,,0.00,Wunderground v.1.15,2013-05-16 05:45:00,
2013-05-16 00:55:00,63.2,44.2,29.82,East,84,0.0,0.0,50,0.00,,,0.00,Wunderground v.1.15,2013-05-16 05:55:00,
2013-05-16 01:00:00,63.0,44.6,29.82,East,84,0.0,0.0,51,0.00,,,0.00,Wunderground v.1.15,2013-05-16 06:00:00,
2013-05-16 01:10:00,63.8,44.3,29.82,ENE,77,1.0,1.0,49,0.00,,,0.00,Wunderground v.1.15,2013-05-16 06:10:00,
2013-05-16 01:15:00,64.6,43.9,29.82,ENE,61,1.0,2.0,47,0.00,,,0.00,Wunderground v.1.15,2013-05-16 06:15:00,
2013-05-16 01:25:00,64.6,44.5,29.82,ENE,58,2.0,3.0,48,0.00,,,0.00,Wunderground v.1.15,2013-05-16 06:25:00,
2013-05-16 01:35:00,64.3,44.7,29.81,ENE,65,1.0,3.0,49,0.00,,,0.00,Wunderground v.1.15,2013-05-16 06:35:00,
2013-05-16 01:45:00,64.1,44.5,29.82,ENE,60,1.0,3.0,49,0.00,,,0.00,Wunderground v.1.15,2013-05-16 06:45:00,
2013-05-16 01:55:00,63.6,45.1,29.81,ENE,71,1.0,3.0,51,0.00,,,0.00,Wunderground v.1.15,2013-05-16 06:55:00,
2013-05-16 02:00:00,63.0,44.6,29.81,ENE,65,1.0,3.0,51,0.00,,,0.00,Wunderground v.1.15,2013-05-16 07:00:00,
2013-05-16 02:10:00,62.6,44.2,29.81,ENE,65,1.0,3.0,51,0.00,,,0.00,Wunderground v.1.15,2013-05-16 07:10:00,
2013-05-16 02:15:00,62.4,44.5,29.81,ENE,75,1.0,3.0,52,0.00,,,0.00,Wunderground v.1.15,2013-05-16 07:15:00,
2013-05-16 02:25:00,62.5,44.1,29.81,East,79,1.0,3.0,51,0.00,,,0.00,Wunderground v.1.15,2013-05-16 07:25:00,
2013-05-16 02:40:00,61.6,44.3,29.80,NE,42,1.0,1.0,53,0.00,,,0.00,Wunderground v.1.15,2013-05-16 07:40:00,
2013-05-16 02:50:00,61.2,43.9,29.80,East,92,0.0,3.0,53,0.00,,,0.00,Wunderground v.1.15,2013-05-16 07:50:00,
2013-05-16 02:55:00,61.0,44.2,29.80,ENE,77,0.0,3.0,54,0.00,,,0.00,Wunderground v.1.15,2013-05-16 07:55:00,
2013-05-16 03:15:00,60.4,44.2,29.80,ENE,72,0.0,3.0,55,0.00,,,0.00,Wunderground v.1.15,2013-05-16 08:15:00,
2013-05-16 03:25:00,60.2,44.0,29.79,ENE,70,0.0,3.0,55,0.00,,,0.00,Wunderground v.1.15,2013-05-16 08:25:00,
2013-05-16 03:35:00,60.7,44.4,29.79,East,98,0.0,3.0,55,0.00,,,0.00,Wunderground v.1.15,2013-05-16 08:35:00,
2013-05-16 03:45:00,60.0,44.3,29.80,ESE,108,0.0,3.0,56,0.00,,,0.00,Wunderground v.1.15,2013-05-16 08:45:00,
2013-05-16 03:50:00,59.7,44.4,29.80,East,82,0.0,3.0,57,0.00,,,0.00,Wunderground v.1.15,2013-05-16 08:50:00,
2013-05-16 04:00:00,59.1,44.3,29.80,East,82,0.0,3.0,58,0.00,,,0.00,Wunderground v.1.15,2013-05-16 09:00:00,
2013-05-16 04:05:00,58.8,44.0,29.80,SE,138,0.0,3.0,58,0.00,,,0.00,Wunderground v.1.15,2013-05-16 09:05:00,
2013-05-16 04:15:00,58.1,43.8,29.80,SE,141,0.0,3.0,59,0.00,,,0.00,Wunderground v.1.15,2013-05-16 09:15:00,
2013-05-16 04:25:00,57.9,44.1,29.81,SE,138,0.0,3.0,60,0.00,,,0.00,Wunderground v.1.15,2013-05-16 09:25:00,
2013-05-16 04:35:00,57.9,44.1,29.80,ENE,72,0.0,3.0,60,0.00,,,0.00,Wunderground v.1.15,2013-05-16 09:35:00,
2013-05-16 04:45:00,57.9,44.1,29.81,East,98,0.0,3.0,60,0.00,,,0.00,Wunderground v.1.15,2013-05-16 09:45:00,
2013-05-16 04:50:00,58.3,44.0,29.81,ESE,107,0.0,3.0,59,0.00,,,0.00,Wunderground v.1.15,2013-05-16 09:50:00,
2013-05-16 05:00:00,58.8,44.5,29.81,East,98,0.0,3.0,59,0.00,,,0.00,Wunderground v.1.15,2013-05-16 10:00:00,
2013-05-16 05:05:00,59.0,44.7,29.81,East,99,0.0,3.0,59,0.00,,,0.00,Wunderground v.1.15,2013-05-16 10:05:00,
2013-05-16 05:15:00,59.5,44.7,29.80,ESE,108,0.0,3.0,58,0.00,,,0.00,Wunderground v.1.15,2013-05-16 10:15:00,
2013-05-16 05:25:00,60.1,45.3,29.81,ESE,102,0.0,3.0,58,0.00,,,0.00,Wunderground v.1.15,2013-05-16 10:25:00,
2013-05-16 05:35:00,60.3,45.5,29.80,East,81,0.0,3.0,58,0.00,,,0.00,Wunderground v.1.15,2013-05-16 10:35:00,
2013-05-16 05:45:00,60.5,45.6,29.80,ESE,108,0.0,3.0,58,0.00,,,0.00,Wunderground v.1.15,2013-05-16 10:45:00,
2013-05-16 05:50:00,60.6,45.3,29.80,East,92,0.0,3.0,57,0.00,,,0.00,Wunderground v.1.15,2013-05-16 10:50:00,
2013-05-16 06:00:00,60.5,45.6,29.81,ESE,113,0.0,0.0,58,0.00,,,0.00,Wunderground v.1.15,2013-05-16 11:00:00,
2013-05-16 06:10:00,60.5,44.7,29.81,ENE,59,1.0,2.0,56,0.00,,,0.00,Wunderground v.1.15,2013-05-16 11:10:00,
2013-05-16 06:15:00,60.5,45.2,29.81,ENE,68,1.0,2.0,57,0.00,,,0.00,Wunderground v.1.15,2013-05-16 11:15:00,
2013-05-16 06:25:00,60.4,45.1,29.81,ESE,120,0.0,1.0,57,0.00,,,0.00,Wunderground v.1.15,2013-05-16 11:25:00,
2013-05-16 06:35:00,60.1,45.3,29.81,ESE,122,0.0,1.0,58,0.00,,,0.00,Wunderground v.1.15,2013-05-16 11:35:00,
2013-05-16 06:45:00,60.1,45.7,29.81,ESE,102,0.0,0.0,59,0.00,,,0.00,Wunderground v.1.15,2013-05-16 11:45:00,
2013-05-16 06:55:00,60.2,45.8,29.81,ENE,72,0.0,0.0,59,0.00,,,0.00,Wunderground v.1.15,2013-05-16 11:55:00,
2013-05-16 07:00:00,60.4,46.0,29.81,East,81,0.0,1.0,59,0.00,,,0.00,Wunderground v.1.15,2013-05-16 12:00:00,
2013-05-16 07:05:00,60.7,45.8,29.81,East,82,0.0,2.0,58,0.00,,,0.00,Wunderground v.1.15,2013-05-16 12:05:00,
2013-05-16 07:15:00,61.4,46.0,29.82,East,80,0.0,2.0,57,0.00,,,0.00,Wunderground v.1.15,2013-05-16 12:15:00,
2013-05-16 07:25:00,62.5,46.6,29.82,ENE,77,1.0,2.0,56,0.00,,,0.00,Wunderground v.1.15,2013-05-16 12:25:00,
2013-05-16 07:35:00,63.1,46.7,29.81,East,100,1.0,2.0,55,0.00,,,0.00,Wunderground v.1.15,2013-05-16 12:35:00,
2013-05-16 07:45:00,63.6,46.6,29.81,ESE,102,1.0,2.0,54,0.00,,,0.00,Wunderground v.1.15,2013-05-16 12:45:00,
2013-05-16 07:55:00,63.9,47.4,29.81,ESE,102,1.0,2.0,55,0.00,,,0.00,Wunderground v.1.15,2013-05-16 12:55:00,
2013-05-16 08:00:00,64.0,47.5,29.81,ESE,110,1.0,1.0,55,0.00,,,0.00,Wunderground v.1.15,2013-05-16 13:00:00,
2013-05-16 08:10:00,64.4,47.4,29.81,ENE,63,1.0,2.0,54,0.00,,,0.00,Wunderground v.1.15,2013-05-16 13:10:00,
2013-05-16 08:15:00,64.6,48.1,29.80,ESE,122,2.0,4.0,55,0.00,,,0.00,Wunderground v.1.15,2013-05-16 13:15:00,
2013-05-16 08:25:00,66.1,48.0,29.80,East,93,2.0,2.0,52,0.00,,,0.00,Wunderground v.1.15,2013-05-16 13:25:00,
2013-05-16 08:35:00,66.3,48.1,29.81,West,272,2.0,2.0,52,0.00,,,0.00,Wunderground v.1.15,2013-05-16 13:35:00,
2013-05-16 08:45:00,65.1,48.0,29.81,ESE,117,2.0,3.0,54,0.00,,,0.00,Wunderground v.1.15,2013-05-16 13:45:00,
2013-05-16 08:55:00,65.1,47.5,29.81,East,99,1.0,2.0,53,0.00,,,0.00,Wunderground v.1.15,2013-05-16 13:55:00,
2013-05-16 09:00:00,66.0,47.9,29.80,SE,124,2.0,3.0,52,0.00,,,0.00,Wunderground v.1.15,2013-05-16 14:00:00,
2013-05-16 09:10:00,67.1,47.8,29.80,SSE,159,2.0,3.0,50,0.00,,,0.00,Wunderground v.1.15,2013-05-16 14:10:00,
2013-05-16 09:15:00,67.4,48.1,29.80,ESE,103,2.0,3.0,50,0.00,,,0.00,Wunderground v.1.15,2013-05-16 14:15:00,
2013-05-16 09:25:00,68.3,49.5,29.79,SE,140,4.0,4.0,51,0.00,,,0.00,Wunderground v.1.15,2013-05-16 14:25:00,
2013-05-16 09:35:00,70.0,49.4,29.79,ESE,115,3.0,8.0,48,0.00,,,0.00,Wunderground v.1.15,2013-05-16 14:35:00,
2013-05-16 09:45:00,70.5,49.9,29.79,ESE,117,5.0,11.0,48,0.00,,,0.00,Wunderground v.1.15,2013-05-16 14:45:00,
2013-05-16 09:55:00,71.7,51.0,29.79,SSE,155,5.0,5.0,48,0.00,,,0.00,Wunderground v.1.15,2013-05-16 14:55:00,
2013-05-16 10:00:00,72.7,51.3,29.79,ESE,103,5.0,7.0,47,0.00,,,0.00,Wunderground v.1.15,2013-05-16 15:00:00,
2013-05-16 10:10:00,73.8,51.1,29.79,ENE,78,5.0,6.0,45,0.00,,,0.00,Wunderground v.1.15,2013-05-16 15:10:00,
2013-05-16 10:15:00,74.3,51.0,29.79,East,82,5.0,6.0,44,0.00,,,0.00,Wunderground v.1.15,2013-05-16 15:15:00,
2013-05-16 10:25:00,75.1,49.8,29.78,SSW,198,6.0,7.0,41,0.00,,,0.00,Wunderground v.1.15,2013-05-16 15:25:00,
2013-05-16 10:35:00,76.3,48.8,29.78,ESE,119,5.0,7.0,38,0.00,,,0.00,Wunderground v.1.15,2013-05-16 15:35:00,
2013-05-16 10:45:00,76.6,48.4,29.77,ESE,109,7.0,12.0,37,0.00,,,0.00,Wunderground v.1.15,2013-05-16 15:45:00,
2013-05-16 10:55:00,77.5,47.7,29.77,ESE,107,6.0,6.0,35,0.00,,,0.00,Wunderground v.1.15,2013-05-16 15:55:00,
2013-05-16 11:00:00,77.9,46.5,29.77,ESE,123,6.0,8.0,33,0.00,,,0.00,Wunderground v.1.15,2013-05-16 16:00:00,
2013-05-16 11:10:00,78.2,47.5,29.76,East,96,6.0,13.0,34,0.00,,,0.00,Wunderground v.1.15,2013-05-16 16:10:00,
2013-05-16 11:15:00,78.0,46.6,29.75,ESE,102,8.0,13.0,33,0.00,,,0.00,Wunderground v.1.15,2013-05-16 16:15:00,
2013-05-16 11:25:00,78.7,47.2,29.75,SE,141,7.0,9.0,33,0.00,,,0.00,Wunderground v.1.15,2013-05-16 16:25:00,
2013-05-16 11:35:00,79.1,47.5,29.75,East,86,6.0,8.0,33,0.00,,,0.00,Wunderground v.1.15,2013-05-16 16:35:00,
2013-05-16 11:45:00,79.7,47.2,29.75,ESE,115,6.0,13.0,32,0.00,,,0.00,Wunderground v.1.15,2013-05-16 16:45:00,
2013-05-16 11:55:00,80.3,46.9,29.74,ENE,72,7.0,8.0,31,0.00,,,0.00,Wunderground v.1.15,2013-05-16 16:55:00,
2013-05-16 12:00:00,80.3,46.9,29.74,ESE,121,7.0,7.0,31,0.00,,,0.00,Wunderground v.1.15,2013-05-16 17:00:00,
2013-05-16 12:10:00,80.8,47.3,29.73,ESE,120,9.0,13.0,31,0.00,,,0.00,Wunderground v.1.15,2013-05-16 17:10:00,
2013-05-16 12:20:00,81.1,48.4,29.72,East,98,7.0,7.0,32,0.00,,,0.00,Wunderground v.1.15,2013-05-16 17:20:00,
2013-05-16 12:25:00,81.0,48.4,29.72,ESE,107,7.0,9.0,32,0.00,,,0.00,Wunderground v.1.15,2013-05-16 17:25:00,
2013-05-16 12:35:00,81.0,48.4,29.72,ESE,116,7.0,10.0,32,0.00,,,0.00,Wunderground v.1.15,2013-05-16 17:35:00,
2013-05-16 12:45:00,80.6,48.8,29.71,SE,129,7.0,7.0,33,0.00,,,0.00,Wunderground v.1.15,2013-05-16 17:45:00,
2013-05-16 12:55:00,79.3,49.3,29.71,NNE,27,7.0,7.0,35,0.00,,,0.00,Wunderground v.1.15,2013-05-16 17:55:00,
2013-05-16 13:05:00,79.0,49.8,29.72,ESE,121,5.0,16.0,36,0.00,,,0.00,Wunderground v.1.15,2013-05-16 18:05:00,
2013-05-16 13:10:00,78.3,53.3,29.71,East,83,5.0,5.0,42,0.00,,,0.00,Wunderground v.1.15,2013-05-16 18:10:00,
2013-05-16 13:20:00,77.1,53.5,29.72,SSE,165,4.0,4.0,44,0.00,,,0.00,Wunderground v.1.15,2013-05-16 18:20:00,
2013-05-16 13:25:00,77.2,54.2,29.73,SSE,165,4.0,6.0,45,0.00,,,0.00,Wunderground v.1.15,2013-05-16 18:25:00,
2013-05-16 13:35:00,77.2,56.0,29.75,WNW,285,4.0,16.0,48,0.00,,,0.00,Wunderground v.1.15,2013-05-16 18:35:00,
2013-05-16 13:45:00,68.8,58.2,29.77,NW,317,6.0,16.0,69,0.00,,,0.01,Wunderground v.1.15,2013-05-16 18:45:00,
2013-05-16 13:55:00,65.9,58.1,29.77,WNW,296,6.0,16.0,76,0.00,,,0.01,Wunderground v.1.15,2013-05-16 18:55:00,
2013-05-16 14:05:00,64.0,59.4,29.76,NNW,333,7.0,16.0,85,0.54,,,0.04,Wunderground v.1.15,2013-05-16 19:05:00,
2013-05-16 14:10:00,62.9,59.3,29.77,NW,312,7.0,7.0,88,1.32,,,0.07,Wunderground v.1.15,2013-05-16 19:10:00,
2013-05-16 14:20:00,61.8,58.8,29.80,WNW,284,7.0,16.0,90,4.68,,,0.28,Wunderground v.1.15,2013-05-16 19:20:00,
2013-05-16 14:25:00,59.4,55.2,29.80,NW,321,8.0,16.0,86,0.17,,,0.41,Wunderground v.1.15,2013-05-16 19:25:00,
2013-05-16 14:35:00,57.1,55.1,29.77,North,6,2.0,16.0,93,0.04,,,0.41,Wunderground v.1.15,2013-05-16 19:35:00,
2013-05-16 14:45:00,59.0,57.6,29.76,NE,41,1.0,16.0,95,0.00,,,0.41,Wunderground v.1.15,2013-05-16 19:45:00,
2013-05-16 14:55:00,59.5,58.1,29.75,NE,44,1.0,16.0,95,0.00,,,0.41,Wunderground v.1.15,2013-05-16 19:55:00,
2013-05-16 15:05:00,59.6,58.2,29.74,ENE,70,1.0,16.0,95,0.00,,,0.41,Wunderground v.1.15,2013-05-16 20:05:00,
2013-05-16 15:10:00,59.8,58.4,29.73,ENE,65,2.0,16.0,95,0.00,,,0.41,Wunderground v.1.15,2013-05-16 20:10:00,
2013-05-16 15:20:00,60.2,58.8,29.72,ENE,58,3.0,16.0,95,0.00,,,0.42,Wunderground v.1.15,2013-05-16 20:20:00,
2013-05-16 15:25:00,60.6,59.2,29.72,ENE,68,3.0,16.0,95,0.00,,,0.42,Wunderground v.1.15,2013-05-16 20:25:00,
2013-05-16 15:35:00,61.2,59.5,29.72,NNE,33,3.0,16.0,94,0.00,,,0.42,Wunderground v.1.15,2013-05-16 20:35:00,
2013-05-16 15:45:00,61.9,60.2,29.72,NE,53,4.0,16.0,94,0.00,,,0.42,Wunderground v.1.15,2013-05-16 20:45:00,
2013-05-16 15:55:00,62.6,60.5,29.72,NNE,25,3.0,9.0,93,0.00,,,0.42,Wunderground v.1.15,2013-05-16 20:55:00,
2013-05-16 16:05:00,63.8,61.4,29.72,ENE,63,4.0,16.0,92,0.00,,,0.42,Wunderground v.1.15,2013-05-16 21:05:00,
2013-05-16 16:10:00,64.7,61.7,29.72,ENE,60,4.0,16.0,90,0.00,,,0.42,Wunderground v.1.15,2013-05-16 21:10:00,
2013-05-16 16:20:00,65.5,61.2,29.71,NE,47,4.0,16.0,86,0.00,,,0.42,Wunderground v.1.15,2013-05-16 21:20:00,
2013-05-16 16:30:00,65.4,60.4,29.71,NE,43,4.0,16.0,84,0.00,,,0.42,Wunderground v.1.15,2013-05-16 21:30:00,
2013-05-16 16:35:00,65.5,61.2,29.71,ENE,70,4.0,16.0,86,0.00,,,0.42,Wunderground v.1.15,2013-05-16 21:35:00,
2013-05-16 16:45:00,65.7,60.7,29.71,NE,53,4.0,16.0,84,0.00,,,0.42,Wunderground v.1.15,2013-05-16 21:45:00,
2013-05-16 16:55:00,66.0,61.0,29.71,ENE,63,3.0,16.0,84,0.00,,,0.42,Wunderground v.1.15,2013-05-16 21:55:00,
2013-05-16 17:05:00,66.7,61.7,29.71,East,101,4.0,16.0,84,0.00,,,0.42,Wunderground v.1.15,2013-05-16 22:05:00,
2013-05-16 17:10:00,67.5,61.5,29.70,ESE,113,3.0,3.0,81,0.00,,,0.42,Wunderground v.1.15,2013-05-16 22:10:00,
2013-05-16 17:20:00,68.2,62.1,29.70,East,86,3.0,3.0,81,0.00,,,0.42,Wunderground v.1.15,2013-05-16 22:20:00,
2013-05-16 17:30:00,68.8,61.3,29.70,NE,53,2.0,16.0,77,0.00,,,0.42,Wunderground v.1.15,2013-05-16 22:30:00,
2013-05-16 17:35:00,68.8,60.9,29.70,ENE,68,4.0,16.0,76,0.00,,,0.42,Wunderground v.1.15,2013-05-16 22:35:00,
2013-05-16 17:45:00,68.4,61.3,29.70,ENE,68,4.0,16.0,78,0.00,,,0.42,Wunderground v.1.15,2013-05-16 22:45:00,
2013-05-16 17:55:00,68.4,61.6,29.70,ENE,70,3.0,16.0,79,0.00,,,0.42,Wunderground v.1.15,2013-05-16 22:55:00,
2013-05-16 18:00:00,68.0,61.2,29.70,East,83,3.0,3.0,79,0.00,,,0.42,Wunderground v.1.15,2013-05-16 23:00:00,
2013-05-16 18:10:00,68.3,61.5,29.69,ENE,68,3.0,3.0,79,0.00,,,0.42,Wunderground v.1.15,2013-05-16 23:10:00,
2013-05-16 18:20:00,68.2,61.4,29.70,SE,132,3.0,3.0,79,0.00,,,0.42,Wunderground v.1.15,2013-05-16 23:20:00,
2013-05-16 18:25:00,68.6,62.2,29.70,ENE,61,2.0,3.0,80,0.00,,,0.42,Wunderground v.1.15,2013-05-16 23:25:00,
2013-05-16 18:35:00,68.0,61.2,29.70,ESE,108,3.0,10.0,79,0.00,,,0.42,Wunderground v.1.15,2013-05-16 23:35:00,
2013-05-16 18:45:00,67.6,61.2,29.70,ENE,78,2.0,10.0,80,0.00,,,0.42,Wunderground v.1.15,2013-05-16 23:45:00,
2013-05-16 18:55:00,67.6,61.2,29.70,East,101,1.0,3.0,80,0.00,,,0.42,Wunderground v.1.15,2013-05-16 23:55:00,
2013-05-16 19:05:00,67.2,60.8,29.70,ESE,108,2.0,10.0,80,0.00,,,0.42,Wunderground v.1.15,2013-05-17 00:05:00,
2013-05-16 19:10:00,67.2,61.2,29.70,East,101,2.0,2.0,81,0.00,,,0.42,Wunderground v.1.15,2013-05-17 00:10:00,
2013-05-16 19:20:00,67.2,61.5,29.70,East,84,1.0,1.0,82,0.00,,,0.42,Wunderground v.1.15,2013-05-17 00:20:00,
2013-05-16 19:25:00,67.2,61.5,29.71,East,99,1.0,2.0,82,0.00,,,0.42,Wunderground v.1.15,2013-05-17 00:25:00,
2013-05-16 19:35:00,67.1,61.4,29.72,ESE,108,1.0,3.0,82,0.00,,,0.42,Wunderground v.1.15,2013-05-17 00:35:00,
2013-05-16 19:45:00,67.0,61.7,29.72,SE,134,1.0,10.0,83,0.00,,,0.42,Wunderground v.1.15,2013-05-17 00:45:00,
2013-05-16 19:55:00,66.8,61.5,29.73,East,94,1.0,10.0,83,0.00,,,0.42,Wunderground v.1.15,2013-05-17 00:55:00,
2013-05-16 20:05:00,66.7,61.4,29.73,SE,141,1.0,10.0,83,0.00,,,0.42,Wunderground v.1.15,2013-05-17 01:05:00,
2013-05-16 20:10:00,66.6,61.3,29.74,SSE,149,0.0,10.0,83,0.00,,,0.42,Wunderground v.1.15,2013-05-17 01:10:00,
2013-05-16 20:20:00,66.6,61.3,29.75,WSW,246,1.0,10.0,83,0.00,,,0.42,Wunderground v.1.15,2013-05-17 01:20:00,
2013-05-16 20:25:00,66.7,60.7,29.75,SSW,203,2.0,10.0,81,0.00,,,0.42,Wunderground v.1.15,2013-05-17 01:25:00,
2013-05-16 20:35:00,66.7,61.0,29.75,SE,138,2.0,10.0,82,0.00,,,0.42,Wunderground v.1.15,2013-05-17 01:35:00,
2013-05-16 20:45:00,66.5,60.8,29.74,SSE,156,2.0,10.0,82,0.00,,,0.42,Wunderground v.1.15,2013-05-17 01:45:00,
2013-05-16 20:55:00,66.0,60.7,29.75,SE,143,1.0,10.0,83,0.00,,,0.42,Wunderground v.1.15,2013-05-17 01:55:00,
2013-05-16 21:05:00,65.8,60.5,29.75,SE,141,1.0,10.0,83,0.00,,,0.42,Wunderground v.1.15,2013-05-17 02:05:00,
2013-05-16 21:10:00,65.5,60.5,29.74,SSE,153,1.0,1.0,84,0.00,,,0.43,Wunderground v.1.15,2013-05-17 02:10:00,
2013-05-16 21:20:00,64.9,60.3,29.73,NNE,30,0.0,10.0,85,0.00,,,0.43,Wunderground v.1.15,2013-05-17 02:20:00,
2013-05-16 21:25:00,64.7,59.8,29.72,NE,41,0.0,10.0,84,0.00,,,0.43,Wunderground v.1.15,2013-05-17 02:25:00,
2013-05-16 21:35:00,64.1,60.2,29.73,SE,134,0.0,10.0,87,0.00,,,0.43,Wunderground v.1.15,2013-05-17 02:35:00,
2013-05-16 21:45:00,63.8,59.9,29.72,ESE,111,0.0,10.0,87,0.00,,,0.43,Wunderground v.1.15,2013-05-17 02:45:00,
2013-05-16 21:55:00,63.9,60.0,29.72,ESE,110,1.0,10.0,87,0.00,,,0.44,Wunderground v.1.15,2013-05-17 02:55:00,
2013-05-16 22:05:00,64.1,59.8,29.73,SE,129,3.0,10.0,86,0.00,,,0.44,Wunderground v.1.15,2013-05-17 03:05:00,
2013-05-16 22:10:00,64.0,60.1,29.74,East,85,2.0,2.0,87,0.00,,,0.44,Wunderground v.1.15,2013-05-17 03:10:00,
2013-05-16 22:20:00,64.1,60.2,29.74,ESE,122,2.0,10.0,87,0.00,,,0.44,Wunderground v.1.15,2013-05-17 03:20:00,
2013-05-16 22:25:00,64.1,60.2,29.74,ESE,107,1.0,10.0,87,0.00,,,0.44,Wunderground v.1.15,2013-05-17 03:25:00,
2013-05-16 22:35:00,64.5,60.5,29.75,SE,145,1.0,10.0,87,0.00,,,0.44,Wunderground v.1.15,2013-05-17 03:35:00,
2013-05-16 22:45:00,64.6,60.3,29.75,SE,137,1.0,10.0,86,0.00,,,0.44,Wunderground v.1.15,2013-05-17 03:45:00,
2013-05-16 22:55:00,64.6,60.3,29.74,ESE,102,1.0,10.0,86,0.00,,,0.44,Wunderground v.1.15,2013-05-17 03:55:00,
2013-05-16 23:05:00,64.9,60.3,29.74,South,169,1.0,10.0,85,0.00,,,0.44,Wunderground v.1.15,2013-05-17 04:05:00,
2013-05-16 23:10:00,64.9,60.3,29.74,ESE,120,0.0,10.0,85,0.00,,,0.44,Wunderground v.1.15,2013-05-17 04:10:00,
2013-05-16 23:20:00,64.8,60.2,29.74,SSE,148,0.0,10.0,85,0.00,,,0.44,Wunderground v.1.15,2013-05-17 04:20:00,
2013-05-16 23:25:00,64.7,60.4,29.74,SE,129,0.0,10.0,86,0.00,,,0.44,Wunderground v.1.15,2013-05-17 04:25:00,
2013-05-16 23:30:00,64.7,60.4,29.74,East,100,1.0,10.0,86,0.00,,,0.44,Wunderground v.1.15,2013-05-17 04:30:00,
2013-05-16 23:35:00,64.6,60.3,29.74,ESE,112,0.0,10.0,86,0.00,,,0.44,Wunderground v.1.15,2013-05-17 04:35:00,
2013-05-16 23:40:00,64.6,60.3,29.74,ESE,122,0.0,10.0,86,0.00,,,0.44,Wunderground v.1.15,2013-05-17 04:40:00,
2013-05-16 23:45:00,64.6,60.3,29.74,East,99,0.0,10.0,86,0.00,,,0.44,Wunderground v.1.15,2013-05-17 04:45:00,
2013-05-16 23:55:00,64.8,60.2,29.74,SW,224,0.0,10.0,85,0.00,,,0.44,Wunderground v.1.15,2013-05-17 04:55:00,